Airfield :
LOGIN :

Register | Disclaimer

   EN    FR    IT 

 










Legend :    VFR   Marginal VFR   IFR   Intensive IFR   Very Intensive IFR
Visi :
Ceiling :
>= 8 km
>= 3000ft
5 to 8 km
1000 to 3000 ft
1500m to 5 km
500 to 1000 ft
800 to 1500m
200 to 500 ft
< 800m
< 200 ft
Symbols :   Thunderstorms  Fog  Heavy snow  Heavy precipitations  Wind > 20 kt
SIGMETs :     Misc.  Thunderstorms  Icing  Turbulence  Mountain Waves  Volcanic Ashes







- Airport Elevation : 1106 ft
- Download approach charts


LFSO - Nancy / Ochey

CURRENT METAR :
  • 272330Z AUTO 24007KT 9999 ///TCU 17/14 Q1018

EXPIRED METARs :
  • 272300Z AUTO 22014KT CAVOK 18/14 Q1018
  • 272230Z AUTO 21012KT 9999 ///CB 19/15 Q1018
  • 272200Z AUTO 21006KT CAVOK 19/16 Q1018
  • 272130Z AUTO 00000KT CAVOK 20/16 Q1017
  • 272100Z AUTO 00000KT CAVOK 19/15 Q1017

TAF TAF LFSO
Valid from the 27 at 09:00 until the 28 at 09:00 UTC


270800Z 2709/2809 22005KT CAVOK
PROB40
TEMPO 2712/2718 24015G30KT 2000 TSRA SCT030CB
No reported NOTAMs for that airfield.
1 SIGMET reported for the Reims FIR (LFEE) :
 
Embedded thunderstorms
LFEE SIGMET 7 VALID 272300/280200 LFPW
LFEE REIMS FIR/UIR EMBD TS OBS WI N4800 E00745 - N4730 E00730 - N4700 E00700 - N4800 E00500 - N4830 E00530 - N4900 E00445 - N4930 E00600 - N4930 E00615 - N4800 E00745 TOP FL380 STNR WKN=



MET'MAP, your aeronautical weather chart ! - Copyright ORBIFLY December 2007 - Disclaimer

ORBIFLY MET'MAP TEAM :

Programming & Development : Alexandra Zaïnal
Concept & Development : Baudouin d'Aumeries
Co-Development & Prog : Marc-Olivier Méhu
Technical & hardware support : Manuel Goepfert

Contact : metmap@orbifly.com




SOURCES & CREDITS :

   NOAA